This is the latest recevied weather packets stored in our database for station/object KB4RFE. If no packets are shown the sender has not sent any weather packets the latest 10 day(s).
| Time | Temp. | Humidity | Pressure | Rain* | Wind** | Luminosity | Snow |
|---|---|---|---|---|---|---|---|
| 1777738111 | 15.56° C | 97% | 1013.6 hPa | 3.05 mm | - | 95 W/m² | - |
| 1777737810 | 15.56° C | 97% | 1013.5 hPa | 1.78 mm | - | 101 W/m² | - |
| 1777737508 | 15° C | 97% | 1013.7 hPa | 2.29 mm | - | 128 W/m² | - |
| 1777737206 | 15° C | 97% | 1013.7 hPa | 4.83 mm | - | 125 W/m² | - |
| 1777736901 | 15° C | 98% | 1013.9 hPa | 0.51 mm | - | 62 W/m² | - |
| 1777736287 | 15.56° C | 98% | 1013.9 hPa | 1.78 mm | - | 122 W/m² | - |
| 1777735984 | 15° C | 98% | 1014.1 hPa | 1.27 mm | - | 116 W/m² | - |
| 1777735681 | 15° C | 98% | 1014.1 hPa | 1.78 mm | - | 83 W/m² | - |
| 1777735379 | 15° C | 98% | 1013.9 hPa | 1.78 mm | - | 99 W/m² | - |
| 1777735076 | 15° C | 97% | 1013.9 hPa | 1.78 mm | - | 140 W/m² | - |
| 1777734773 | 15° C | 97% | 1014.3 hPa | 2.29 mm | - | 115 W/m² | - |
| 1777734471 | 15° C | 97% | 1014.3 hPa | 3.56 mm | - | 94 W/m² | - |
| 1777734167 | 15° C | 97% | 1014.1 hPa | 3.56 mm | - | 74 W/m² | - |
| 1777733863 | 15° C | 97% | 1014.4 hPa | 5.33 mm | - | 83 W/m² | - |
| 1777733560 | 15° C | 97% | 1014.4 hPa | 7.87 mm | - | 81 W/m² | - |
| 1777733256 | 15° C | 97% | 1014 hPa | 4.32 mm | - | 77 W/m² | - |
| 1777732953 | 15° C | 97% | 1014.2 hPa | 1.27 mm | - | 60 W/m² | - |
| 1777732649 | 15° C | 97% | 1014.3 hPa | 2.29 mm | - | 67 W/m² | - |
| 1777732347 | 15° C | 97% | 1014 hPa | 3.05 mm | - | 105 W/m² | - |
| 1777732045 | 15° C | 97% | 1014.6 hPa | 3.56 mm | - | 31 W/m² | - |
| 1777731741 | 15° C | 97% | 1014.2 hPa | 3.56 mm | - | 96 W/m² | - |
| 1777731438 | 15° C | 97% | 1014.4 hPa | 5.33 mm | - | 56 W/m² | - |
| 1777731137 | 15° C | 97% | 1014.1 hPa | 7.11 mm | - | 62 W/m² | - |
| 1777730835 | 15° C | 97% | 1013.9 hPa | 8.38 mm | - | 62 W/m² | - |
| 1777730531 | 15° C | 97% | 1014 hPa | 8.38 mm | - | 67 W/m² | - |
* Rain latest hour (hover to see other rain measurements)
** Current wind speed in m/s (hover to see current wind gust speed)